sensor_id;sensor_type;location;lat;lon;timestamp;P1;durP1;ratioP1;P2;durP2;ratioP2
17662;SDS011;8950;56.892;15.090;2023-04-08T00:01:16;3.00;;;2.80;;
17662;SDS011;8950;56.892;15.090;2023-04-08T00:03:42;3.72;;;2.78;;
17662;SDS011;8950;56.892;15.090;2023-04-08T00:06:08;3.50;;;3.10;;
17662;SDS011;8950;56.892;15.090;2023-04-08T00:08:35;2.85;;;2.65;;
17662;SDS011;8950;56.892;15.090;2023-04-08T00:11:01;3.30;;;2.53;;
17662;SDS011;8950;56.892;15.090;2023-04-08T00:13:28;2.80;;;2.60;;
17662;SDS011;8950;56.892;15.090;2023-04-08T00:15:54;2.85;;;2.65;;
17662;SDS011;8950;56.892;15.090;2023-04-08T00:18:22;2.75;;;2.55;;
17662;SDS011;8950;56.892;15.090;2023-04-08T00:20:49;3.13;;;2.60;;
17662;SDS011;8950;56.892;15.090;2023-04-08T00:23:15;2.85;;;2.65;;
17662;SDS011;8950;56.892;15.090;2023-04-08T00:25:42;3.03;;;2.83;;
17662;SDS011;8950;56.892;15.090;2023-04-08T00:28:08;2.90;;;2.70;;
17662;SDS011;8950;56.892;15.090;2023-04-08T00:30:35;3.38;;;2.90;;
17662;SDS011;8950;56.892;15.090;2023-04-08T00:33:01;3.05;;;2.80;;
17662;SDS011;8950;56.892;15.090;2023-04-08T00:35:29;3.13;;;2.60;;
17662;SDS011;8950;56.892;15.090;2023-04-08T00:37:56;3.30;;;3.00;;
17662;SDS011;8950;56.892;15.090;2023-04-08T00:40:22;3.40;;;2.63;;
17662;SDS011;8950;56.892;15.090;2023-04-08T00:42:49;3.97;;;2.80;;
17662;SDS011;8950;56.892;15.090;2023-04-08T00:45:16;3.13;;;2.90;;
17662;SDS011;8950;56.892;15.090;2023-04-08T00:47:42;3.30;;;3.00;;
17662;SDS011;8950;56.892;15.090;2023-04-08T00:50:09;2.95;;;2.75;;
17662;SDS011;8950;56.892;15.090;2023-04-08T00:52:37;3.22;;;2.92;;
17662;SDS011;8950;56.892;15.090;2023-04-08T00:55:04;2.80;;;2.60;;
17662;SDS011;8950;56.892;15.090;2023-04-08T00:57:30;3.72;;;3.40;;
17662;SDS011;8950;56.892;15.090;2023-04-08T00:59:57;3.53;;;3.20;;
17662;SDS011;8950;56.892;15.090;2023-04-08T01:02:25;3.35;;;3.10;;
17662;SDS011;8950;56.892;15.090;2023-04-08T01:04:57;3.65;;;3.10;;
17662;SDS011;8950;56.892;15.090;2023-04-08T01:07:26;3.35;;;3.05;;
17662;SDS011;8950;56.892;15.090;2023-04-08T01:09:55;3.05;;;2.85;;
17662;SDS011;8950;56.892;15.090;2023-04-08T01:12:24;3.10;;;2.90;;
17662;SDS011;8950;56.892;15.090;2023-04-08T01:14:51;3.10;;;2.90;;
17662;SDS011;8950;56.892;15.090;2023-04-08T01:17:21;3.25;;;3.03;;
17662;SDS011;8950;56.892;15.090;2023-04-08T01:19:48;3.28;;;3.03;;
17662;SDS011;8950;56.892;15.090;2023-04-08T01:22:18;3.30;;;3.10;;
17662;SDS011;8950;56.892;15.090;2023-04-08T01:24:48;3.58;;;3.28;;
17662;SDS011;8950;56.892;15.090;2023-04-08T01:27:17;3.38;;;3.08;;
17662;SDS011;8950;56.892;15.090;2023-04-08T01:29:44;3.10;;;2.80;;
17662;SDS011;8950;56.892;15.090;2023-04-08T01:32:12;3.05;;;2.85;;
17662;SDS011;8950;56.892;15.090;2023-04-08T01:34:40;3.00;;;2.80;;
17662;SDS011;8950;56.892;15.090;2023-04-08T01:37:07;2.88;;;2.63;;
17662;SDS011;8950;56.892;15.090;2023-04-08T01:39:33;3.30;;;3.00;;
17662;SDS011;8950;56.892;15.090;2023-04-08T01:42:00;3.45;;;3.13;;
17662;SDS011;8950;56.892;15.090;2023-04-08T01:44:30;3.58;;;3.28;;
17662;SDS011;8950;56.892;15.090;2023-04-08T01:46:57;3.30;;;3.10;;
17662;SDS011;8950;56.892;15.090;2023-04-08T01:49:24;3.30;;;3.00;;
17662;SDS011;8950;56.892;15.090;2023-04-08T01:51:51;3.05;;;2.85;;
17662;SDS011;8950;56.892;15.090;2023-04-08T01:54:19;3.22;;;2.92;;
17662;SDS011;8950;56.892;15.090;2023-04-08T01:56:45;3.65;;;3.35;;
17662;SDS011;8950;56.892;15.090;2023-04-08T01:59:12;3.40;;;3.10;;
17662;SDS011;8950;56.892;15.090;2023-04-08T02:01:41;3.30;;;3.00;;
17662;SDS011;8950;56.892;15.090;2023-04-08T02:04:08;3.03;;;2.83;;
17662;SDS011;8950;56.892;15.090;2023-04-08T02:06:34;3.55;;;3.25;;
17662;SDS011;8950;56.892;15.090;2023-04-08T02:09:02;3.60;;;3.30;;
17662;SDS011;8950;56.892;15.090;2023-04-08T02:11:29;3.40;;;3.13;;
17662;SDS011;8950;56.892;15.090;2023-04-08T02:13:56;3.50;;;3.20;;
17662;SDS011;8950;56.892;15.090;2023-04-08T02:16:24;3.50;;;3.20;;
17662;SDS011;8950;56.892;15.090;2023-04-08T02:18:55;3.60;;;3.30;;
17662;SDS011;8950;56.892;15.090;2023-04-08T02:21:25;3.63;;;3.33;;
17662;SDS011;8950;56.892;15.090;2023-04-08T02:23:55;3.03;;;2.67;;
17662;SDS011;8950;56.892;15.090;2023-04-08T02:26:22;3.58;;;3.28;;
17662;SDS011;8950;56.892;15.090;2023-04-08T02:28:49;3.72;;;3.42;;
17662;SDS011;8950;56.892;15.090;2023-04-08T02:31:17;4.15;;;3.50;;
17662;SDS011;8950;56.892;15.090;2023-04-08T02:33:44;3.75;;;3.40;;
17662;SDS011;8950;56.892;15.090;2023-04-08T02:36:13;3.67;;;3.38;;
17662;SDS011;8950;56.892;15.090;2023-04-08T02:38:40;3.85;;;3.55;;
17662;SDS011;8950;56.892;15.090;2023-04-08T02:41:07;3.92;;;3.63;;
17662;SDS011;8950;56.892;15.090;2023-04-08T02:43:33;4.07;;;3.53;;
17662;SDS011;8950;56.892;15.090;2023-04-08T02:46:00;4.03;;;3.72;;
17662;SDS011;8950;56.892;15.090;2023-04-08T02:48:27;4.32;;;3.92;;
17662;SDS011;8950;56.892;15.090;2023-04-08T02:50:53;3.90;;;3.60;;
17662;SDS011;8950;56.892;15.090;2023-04-08T02:53:22;3.95;;;3.65;;
17662;SDS011;8950;56.892;15.090;2023-04-08T02:55:49;4.32;;;3.70;;
17662;SDS011;8950;56.892;15.090;2023-04-08T02:58:15;3.85;;;3.55;;
17662;SDS011;8950;56.892;15.090;2023-04-08T03:00:41;3.70;;;3.40;;
17662;SDS011;8950;56.892;15.090;2023-04-08T03:03:08;3.90;;;3.60;;
17662;SDS011;8950;56.892;15.090;2023-04-08T03:05:35;3.90;;;3.60;;
17662;SDS011;8950;56.892;15.090;2023-04-08T03:08:01;3.47;;;3.17;;
17662;SDS011;8950;56.892;15.090;2023-04-08T03:10:29;4.00;;;3.70;;
17662;SDS011;8950;56.892;15.090;2023-04-08T03:12:55;4.00;;;3.60;;
17662;SDS011;8950;56.892;15.090;2023-04-08T03:15:21;3.92;;;3.63;;
17662;SDS011;8950;56.892;15.090;2023-04-08T03:17:48;4.00;;;3.60;;
17662;SDS011;8950;56.892;15.090;2023-04-08T03:20:15;3.80;;;3.50;;
17662;SDS011;8950;56.892;15.090;2023-04-08T03:22:41;3.75;;;3.45;;
17662;SDS011;8950;56.892;15.090;2023-04-08T03:25:08;4.05;;;3.40;;
17662;SDS011;8950;56.892;15.090;2023-04-08T03:27:37;4.35;;;3.78;;
17662;SDS011;8950;56.892;15.090;2023-04-08T03:30:04;3.75;;;3.30;;
17662;SDS011;8950;56.892;15.090;2023-04-08T03:32:31;3.78;;;3.47;;
17662;SDS011;8950;56.892;15.090;2023-04-08T03:34:57;4.30;;;3.90;;
17662;SDS011;8950;56.892;15.090;2023-04-08T03:37:24;3.70;;;3.40;;
17662;SDS011;8950;56.892;15.090;2023-04-08T03:39:52;3.33;;;3.05;;
17662;SDS011;8950;56.892;15.090;2023-04-08T03:42:18;3.90;;;3.38;;
17662;SDS011;8950;56.892;15.090;2023-04-08T03:44:46;3.72;;;3.40;;
17662;SDS011;8950;56.892;15.090;2023-04-08T03:47:12;3.97;;;3.67;;
17662;SDS011;8950;56.892;15.090;2023-04-08T03:49:39;4.05;;;3.75;;
17662;SDS011;8950;56.892;15.090;2023-04-08T03:52:06;3.70;;;3.40;;
17662;SDS011;8950;56.892;15.090;2023-04-08T03:54:32;3.60;;;3.30;;
17662;SDS011;8950;56.892;15.090;2023-04-08T03:56:59;3.78;;;3.47;;
17662;SDS011;8950;56.892;15.090;2023-04-08T03:59:25;3.97;;;3.67;;
17662;SDS011;8950;56.892;15.090;2023-04-08T04:01:53;3.40;;;3.10;;
17662;SDS011;8950;56.892;15.090;2023-04-08T04:04:20;3.80;;;3.50;;
17662;SDS011;8950;56.892;15.090;2023-04-08T04:06:47;3.50;;;3.15;;
17662;SDS011;8950;56.892;15.090;2023-04-08T04:09:13;3.70;;;3.40;;
17662;SDS011;8950;56.892;15.090;2023-04-08T04:11:40;3.50;;;3.30;;
17662;SDS011;8950;56.892;15.090;2023-04-08T04:14:07;3.80;;;3.50;;
17662;SDS011;8950;56.892;15.090;2023-04-08T04:16:33;3.15;;;2.85;;
17662;SDS011;8950;56.892;15.090;2023-04-08T04:19:01;3.38;;;3.17;;
17662;SDS011;8950;56.892;15.090;2023-04-08T04:21:27;3.53;;;3.22;;
17662;SDS011;8950;56.892;15.090;2023-04-08T04:23:54;3.55;;;3.25;;
17662;SDS011;8950;56.892;15.090;2023-04-08T04:26:20;3.58;;;3.28;;
17662;SDS011;8950;56.892;15.090;2023-04-08T04:28:46;3.35;;;2.97;;
17662;SDS011;8950;56.892;15.090;2023-04-08T04:31:16;3.33;;;3.08;;
17662;SDS011;8950;56.892;15.090;2023-04-08T04:33:43;3.17;;;2.88;;
17662;SDS011;8950;56.892;15.090;2023-04-08T04:36:11;3.30;;;3.00;;
17662;SDS011;8950;56.892;15.090;2023-04-08T04:38:37;3.30;;;3.00;;
17662;SDS011;8950;56.892;15.090;2023-04-08T04:41:04;3.70;;;3.40;;
17662;SDS011;8950;56.892;15.090;2023-04-08T04:43:31;3.33;;;3.13;;
17662;SDS011;8950;56.892;15.090;2023-04-08T04:45:57;3.28;;;2.97;;
17662;SDS011;8950;56.892;15.090;2023-04-08T04:48:24;3.25;;;3.05;;
17662;SDS011;8950;56.892;15.090;2023-04-08T04:50:54;3.17;;;2.88;;
17662;SDS011;8950;56.892;15.090;2023-04-08T04:53:22;3.60;;;3.30;;
17662;SDS011;8950;56.892;15.090;2023-04-08T04:55:48;3.00;;;2.80;;
17662;SDS011;8950;56.892;15.090;2023-04-08T04:58:15;3.30;;;3.10;;
17662;SDS011;8950;56.892;15.090;2023-04-08T05:00:42;3.47;;;3.10;;
17662;SDS011;8950;56.892;15.090;2023-04-08T05:03:08;3.67;;;3.40;;
17662;SDS011;8950;56.892;15.090;2023-04-08T05:05:34;3.35;;;3.03;;
17662;SDS011;8950;56.892;15.090;2023-04-08T05:08:01;3.40;;;3.10;;
17662;SDS011;8950;56.892;15.090;2023-04-08T05:10:28;3.33;;;3.03;;
17662;SDS011;8950;56.892;15.090;2023-04-08T05:12:55;3.15;;;2.95;;
17662;SDS011;8950;56.892;15.090;2023-04-08T05:15:21;3.50;;;3.22;;
17662;SDS011;8950;56.892;15.090;2023-04-08T05:17:47;3.35;;;3.15;;
17662;SDS011;8950;56.892;15.090;2023-04-08T05:20:14;3.30;;;3.10;;
17662;SDS011;8950;56.892;15.090;2023-04-08T05:22:40;3.22;;;3.03;;
17662;SDS011;8950;56.892;15.090;2023-04-08T05:25:09;3.13;;;2.92;;
17662;SDS011;8950;56.892;15.090;2023-04-08T05:27:37;3.40;;;3.17;;
17662;SDS011;8950;56.892;15.090;2023-04-08T05:30:05;3.05;;;2.85;;
17662;SDS011;8950;56.892;15.090;2023-04-08T05:32:32;3.53;;;3.22;;
17662;SDS011;8950;56.892;15.090;2023-04-08T05:35:00;3.70;;;3.40;;
17662;SDS011;8950;56.892;15.090;2023-04-08T05:37:27;3.15;;;2.83;;
17662;SDS011;8950;56.892;15.090;2023-04-08T05:39:53;3.75;;;3.45;;
17662;SDS011;8950;56.892;15.090;2023-04-08T05:42:20;3.60;;;3.40;;
17662;SDS011;8950;56.892;15.090;2023-04-08T05:44:48;3.10;;;2.90;;
17662;SDS011;8950;56.892;15.090;2023-04-08T05:47:14;3.50;;;3.20;;
17662;SDS011;8950;56.892;15.090;2023-04-08T05:49:41;3.20;;;3.00;;
17662;SDS011;8950;56.892;15.090;2023-04-08T05:52:07;3.30;;;3.10;;
17662;SDS011;8950;56.892;15.090;2023-04-08T05:54:34;3.42;;;3.13;;
17662;SDS011;8950;56.892;15.090;2023-04-08T05:57:00;3.28;;;3.00;;
17662;SDS011;8950;56.892;15.090;2023-04-08T05:59:27;3.17;;;2.88;;
17662;SDS011;8950;56.892;15.090;2023-04-08T06:01:54;3.58;;;2.83;;
17662;SDS011;8950;56.892;15.090;2023-04-08T06:04:21;3.65;;;3.10;;
17662;SDS011;8950;56.892;15.090;2023-04-08T06:06:47;2.97;;;2.78;;
17662;SDS011;8950;56.892;15.090;2023-04-08T06:09:14;3.17;;;2.97;;
17662;SDS011;8950;56.892;15.090;2023-04-08T06:11:40;3.00;;;2.80;;
17662;SDS011;8950;56.892;15.090;2023-04-08T06:14:06;3.08;;;2.88;;
17662;SDS011;8950;56.892;15.090;2023-04-08T06:16:33;3.35;;;3.05;;
17662;SDS011;8950;56.892;15.090;2023-04-08T06:19:00;2.95;;;2.75;;
17662;SDS011;8950;56.892;15.090;2023-04-08T06:21:27;3.03;;;2.83;;
17662;SDS011;8950;56.892;15.090;2023-04-08T06:23:53;3.55;;;3.25;;
17662;SDS011;8950;56.892;15.090;2023-04-08T06:26:20;3.10;;;2.90;;
17662;SDS011;8950;56.892;15.090;2023-04-08T06:28:46;3.17;;;2.97;;
17662;SDS011;8950;56.892;15.090;2023-04-08T06:31:12;3.50;;;3.00;;
17662;SDS011;8950;56.892;15.090;2023-04-08T06:33:39;3.40;;;3.10;;
17662;SDS011;8950;56.892;15.090;2023-04-08T06:36:08;2.75;;;2.55;;
17662;SDS011;8950;56.892;15.090;2023-04-08T06:38:35;3.72;;;2.90;;
17662;SDS011;8950;56.892;15.090;2023-04-08T06:41:01;3.25;;;3.00;;
17662;SDS011;8950;56.892;15.090;2023-04-08T06:43:28;2.88;;;2.50;;
17662;SDS011;8950;56.892;15.090;2023-04-08T06:45:55;3.17;;;2.88;;
17662;SDS011;8950;56.892;15.090;2023-04-08T06:48:22;2.70;;;2.50;;
17662;SDS011;8950;56.892;15.090;2023-04-08T06:50:52;3.63;;;3.05;;
17662;SDS011;8950;56.892;15.090;2023-04-08T06:53:20;3.35;;;2.97;;
17662;SDS011;8950;56.892;15.090;2023-04-08T06:55:47;3.35;;;3.00;;
17662;SDS011;8950;56.892;15.090;2023-04-08T06:58:14;3.65;;;3.00;;
17662;SDS011;8950;56.892;15.090;2023-04-08T07:00:40;3.20;;;2.90;;
17662;SDS011;8950;56.892;15.090;2023-04-08T07:03:07;2.97;;;2.78;;
17662;SDS011;8950;56.892;15.090;2023-04-08T07:05:35;3.25;;;3.05;;
17662;SDS011;8950;56.892;15.090;2023-04-08T07:08:02;3.13;;;2.83;;
17662;SDS011;8950;56.892;15.090;2023-04-08T07:10:30;3.30;;;3.00;;
17662;SDS011;8950;56.892;15.090;2023-04-08T07:12:56;3.30;;;3.00;;
17662;SDS011;8950;56.892;15.090;2023-04-08T07:15:23;2.78;;;2.58;;
17662;SDS011;8950;56.892;15.090;2023-04-08T07:17:49;4.70;;;2.90;;
17662;SDS011;8950;56.892;15.090;2023-04-08T07:20:16;3.17;;;2.90;;
17662;SDS011;8950;56.892;15.090;2023-04-08T07:22:42;2.67;;;2.47;;
17662;SDS011;8950;56.892;15.090;2023-04-08T07:25:09;3.88;;;3.08;;
17662;SDS011;8950;56.892;15.090;2023-04-08T07:27:37;3.67;;;3.00;;
17662;SDS011;8950;56.892;15.090;2023-04-08T07:30:03;3.15;;;2.88;;
17662;SDS011;8950;56.892;15.090;2023-04-08T07:32:31;2.97;;;2.78;;
17662;SDS011;8950;56.892;15.090;2023-04-08T07:34:58;3.08;;;2.78;;
17662;SDS011;8950;56.892;15.090;2023-04-08T07:37:24;3.08;;;2.78;;
17662;SDS011;8950;56.892;15.090;2023-04-08T07:39:51;2.60;;;2.40;;
17662;SDS011;8950;56.892;15.090;2023-04-08T07:42:17;5.35;;;2.88;;
17662;SDS011;8950;56.892;15.090;2023-04-08T07:44:45;3.17;;;2.80;;
17662;SDS011;8950;56.892;15.090;2023-04-08T07:47:12;2.92;;;2.72;;
17662;SDS011;8950;56.892;15.090;2023-04-08T07:49:38;3.15;;;2.88;;
17662;SDS011;8950;56.892;15.090;2023-04-08T07:52:05;3.00;;;2.60;;
17662;SDS011;8950;56.892;15.090;2023-04-08T07:54:31;3.53;;;2.70;;
17662;SDS011;8950;56.892;15.090;2023-04-08T07:56:58;2.97;;;2.78;;
17662;SDS011;8950;56.892;15.090;2023-04-08T07:59:25;2.70;;;2.50;;
17662;SDS011;8950;56.892;15.090;2023-04-08T08:01:53;2.45;;;2.25;;
17662;SDS011;8950;56.892;15.090;2023-04-08T08:04:19;2.90;;;2.60;;
17662;SDS011;8950;56.892;15.090;2023-04-08T08:06:49;2.78;;;2.58;;
17662;SDS011;8950;56.892;15.090;2023-04-08T08:09:16;2.90;;;2.60;;
17662;SDS011;8950;56.892;15.090;2023-04-08T08:11:42;3.17;;;2.40;;
17662;SDS011;8950;56.892;15.090;2023-04-08T08:14:08;4.25;;;3.00;;
17662;SDS011;8950;56.892;15.090;2023-04-08T08:16:35;2.83;;;2.53;;
17662;SDS011;8950;56.892;15.090;2023-04-08T08:19:04;2.72;;;2.53;;
17662;SDS011;8950;56.892;15.090;2023-04-08T08:21:31;2.70;;;2.50;;
17662;SDS011;8950;56.892;15.090;2023-04-08T08:23:58;2.78;;;2.50;;
17662;SDS011;8950;56.892;15.090;2023-04-08T08:26:24;2.83;;;2.63;;
17662;SDS011;8950;56.892;15.090;2023-04-08T08:28:51;2.60;;;2.40;;
17662;SDS011;8950;56.892;15.090;2023-04-08T08:31:17;2.70;;;2.50;;
17662;SDS011;8950;56.892;15.090;2023-04-08T08:33:44;5.18;;;2.55;;
17662;SDS011;8950;56.892;15.090;2023-04-08T08:36:13;2.53;;;2.33;;
17662;SDS011;8950;56.892;15.090;2023-04-08T08:38:40;3.35;;;2.40;;
17662;SDS011;8950;56.892;15.090;2023-04-08T08:41:06;2.97;;;2.70;;
17662;SDS011;8950;56.892;15.090;2023-04-08T08:43:32;3.20;;;2.90;;
17662;SDS011;8950;56.892;15.090;2023-04-08T08:45:59;3.65;;;2.55;;
17662;SDS011;8950;56.892;15.090;2023-04-08T08:48:26;2.67;;;2.47;;
17662;SDS011;8950;56.892;15.090;2023-04-08T08:50:52;2.50;;;2.30;;
17662;SDS011;8950;56.892;15.090;2023-04-08T08:53:20;3.08;;;2.50;;
17662;SDS011;8950;56.892;15.090;2023-04-08T08:55:47;3.28;;;2.70;;
17662;SDS011;8950;56.892;15.090;2023-04-08T08:58:13;3.08;;;2.72;;
17662;SDS011;8950;56.892;15.090;2023-04-08T09:00:40;2.95;;;2.60;;
17662;SDS011;8950;56.892;15.090;2023-04-08T09:03:15;2.65;;;2.45;;
17662;SDS011;8950;56.892;15.090;2023-04-08T09:05:48;3.13;;;2.40;;
17662;SDS011;8950;56.892;15.090;2023-04-08T09:08:23;3.50;;;2.58;;
17662;SDS011;8950;56.892;15.090;2023-04-08T09:10:50;3.78;;;2.70;;
17662;SDS011;8950;56.892;15.090;2023-04-08T09:13:16;2.75;;;2.50;;
17662;SDS011;8950;56.892;15.090;2023-04-08T09:18:24;3.35;;;2.53;;
17662;SDS011;8950;56.892;15.090;2023-04-08T09:20:51;2.72;;;2.53;;
17662;SDS011;8950;56.892;15.090;2023-04-08T09:23:17;2.85;;;2.50;;
17662;SDS011;8950;56.892;15.090;2023-04-08T09:25:45;2.75;;;2.55;;
17662;SDS011;8950;56.892;15.090;2023-04-08T09:28:17;3.17;;;2.63;;
17662;SDS011;8950;56.892;15.090;2023-04-08T09:30:44;3.45;;;2.88;;
17662;SDS011;8950;56.892;15.090;2023-04-08T09:33:11;3.53;;;2.60;;
17662;SDS011;8950;56.892;15.090;2023-04-08T09:35:37;4.50;;;2.72;;
17662;SDS011;8950;56.892;15.090;2023-04-08T09:38:03;2.95;;;2.70;;
17662;SDS011;8950;56.892;15.090;2023-04-08T09:40:30;2.70;;;2.50;;
17662;SDS011;8950;56.892;15.090;2023-04-08T09:43:00;4.63;;;2.80;;
17662;SDS011;8950;56.892;15.090;2023-04-08T09:45:29;3.33;;;2.65;;
17662;SDS011;8950;56.892;15.090;2023-04-08T09:48:00;2.92;;;2.58;;
17662;SDS011;8950;56.892;15.090;2023-04-08T09:50:30;2.35;;;2.15;;
17662;SDS011;8950;56.892;15.090;2023-04-08T09:52:59;3.17;;;2.65;;
17662;SDS011;8950;56.892;15.090;2023-04-08T09:55:26;2.58;;;2.33;;
17662;SDS011;8950;56.892;15.090;2023-04-08T09:57:57;3.50;;;2.40;;
17662;SDS011;8950;56.892;15.090;2023-04-08T10:00:27;3.72;;;2.40;;
17662;SDS011;8950;56.892;15.090;2023-04-08T10:02:55;2.75;;;2.55;;
17662;SDS011;8950;56.892;15.090;2023-04-08T10:05:24;3.00;;;2.17;;
17662;SDS011;8950;56.892;15.090;2023-04-08T10:07:50;2.78;;;2.53;;
17662;SDS011;8950;56.892;15.090;2023-04-08T10:10:17;8.20;;;2.47;;
17662;SDS011;8950;56.892;15.090;2023-04-08T10:12:44;2.92;;;2.40;;
17662;SDS011;8950;56.892;15.090;2023-04-08T10:15:24;2.50;;;2.30;;
17662;SDS011;8950;56.892;15.090;2023-04-08T10:17:52;2.83;;;2.22;;
17662;SDS011;8950;56.892;15.090;2023-04-08T10:23:13;2.35;;;2.10;;
17662;SDS011;8950;56.892;15.090;2023-04-08T10:25:40;2.80;;;2.33;;
17662;SDS011;8950;56.892;15.090;2023-04-08T10:28:23;2.50;;;2.30;;
17662;SDS011;8950;56.892;15.090;2023-04-08T10:30:50;2.90;;;2.20;;
17662;SDS011;8950;56.892;15.090;2023-04-08T10:33:18;2.33;;;2.13;;
17662;SDS011;8950;56.892;15.090;2023-04-08T10:35:47;2.47;;;2.17;;
17662;SDS011;8950;56.892;15.090;2023-04-08T10:38:13;2.25;;;2.15;;
17662;SDS011;8950;56.892;15.090;2023-04-08T10:40:40;2.30;;;2.10;;
17662;SDS011;8950;56.892;15.090;2023-04-08T10:43:07;2.25;;;1.80;;
17662;SDS011;8950;56.892;15.090;2023-04-08T10:45:34;2.10;;;2.00;;
17662;SDS011;8950;56.892;15.090;2023-04-08T10:48:11;2.33;;;2.13;;
17662;SDS011;8950;56.892;15.090;2023-04-08T10:50:43;2.42;;;2.22;;
17662;SDS011;8950;56.892;15.090;2023-04-08T10:53:13;2.70;;;2.17;;
17662;SDS011;8950;56.892;15.090;2023-04-08T10:55:42;3.38;;;2.25;;
17662;SDS011;8950;56.892;15.090;2023-04-08T10:58:18;2.63;;;2.42;;
17662;SDS011;8950;56.892;15.090;2023-04-08T11:00:46;2.72;;;2.47;;
17662;SDS011;8950;56.892;15.090;2023-04-08T11:03:13;2.60;;;2.40;;
17662;SDS011;8950;56.892;15.090;2023-04-08T11:05:42;2.25;;;2.05;;
17662;SDS011;8950;56.892;15.090;2023-04-08T11:08:09;2.60;;;2.15;;
17662;SDS011;8950;56.892;15.090;2023-04-08T11:10:36;2.40;;;2.20;;
17662;SDS011;8950;56.892;15.090;2023-04-08T11:13:02;2.03;;;1.90;;
17662;SDS011;8950;56.892;15.090;2023-04-08T11:15:31;3.13;;;2.00;;
17662;SDS011;8950;56.892;15.090;2023-04-08T11:18:00;2.75;;;2.35;;
17662;SDS011;8950;56.892;15.090;2023-04-08T11:20:27;2.22;;;2.00;;
17662;SDS011;8950;56.892;15.090;2023-04-08T11:22:55;2.53;;;1.92;;
17662;SDS011;8950;56.892;15.090;2023-04-08T11:25:21;2.40;;;2.13;;
17662;SDS011;8950;56.892;15.090;2023-04-08T11:27:47;6.63;;;2.58;;
17662;SDS011;8950;56.892;15.090;2023-04-08T11:30:14;2.28;;;1.88;;
17662;SDS011;8950;56.892;15.090;2023-04-08T11:32:40;3.13;;;1.95;;
17662;SDS011;8950;56.892;15.090;2023-04-08T11:35:07;2.20;;;1.98;;
17662;SDS011;8950;56.892;15.090;2023-04-08T11:37:37;3.05;;;2.13;;
17662;SDS011;8950;56.892;15.090;2023-04-08T11:40:09;2.35;;;2.15;;
17662;SDS011;8950;56.892;15.090;2023-04-08T11:42:36;2.75;;;2.15;;
17662;SDS011;8950;56.892;15.090;2023-04-08T11:45:08;2.30;;;2.10;;
17662;SDS011;8950;56.892;15.090;2023-04-08T11:47:35;2.35;;;2.15;;
17662;SDS011;8950;56.892;15.090;2023-04-08T11:50:02;3.10;;;2.28;;
17662;SDS011;8950;56.892;15.090;2023-04-08T11:55:11;2.20;;;2.00;;
17662;SDS011;8950;56.892;15.090;2023-04-08T11:57:38;3.95;;;2.30;;
17662;SDS011;8950;56.892;15.090;2023-04-08T12:00:05;3.47;;;2.05;;
17662;SDS011;8950;56.892;15.090;2023-04-08T12:02:32;2.35;;;2.15;;
17662;SDS011;8950;56.892;15.090;2023-04-08T12:04:58;2.33;;;2.13;;
17662;SDS011;8950;56.892;15.090;2023-04-08T12:07:25;2.22;;;2.13;;
17662;SDS011;8950;56.892;15.090;2023-04-08T12:09:52;3.22;;;2.20;;
17662;SDS011;8950;56.892;15.090;2023-04-08T12:12:20;2.30;;;2.08;;
17662;SDS011;8950;56.892;15.090;2023-04-08T12:14:46;10.30;;;2.85;;
17662;SDS011;8950;56.892;15.090;2023-04-08T12:17:12;2.33;;;2.10;;
17662;SDS011;8950;56.892;15.090;2023-04-08T12:19:39;2.47;;;2.28;;
17662;SDS011;8950;56.892;15.090;2023-04-08T12:22:05;2.47;;;2.28;;
17662;SDS011;8950;56.892;15.090;2023-04-08T12:24:31;2.30;;;2.10;;
17662;SDS011;8950;56.892;15.090;2023-04-08T12:26:58;2.20;;;2.00;;
17662;SDS011;8950;56.892;15.090;2023-04-08T12:29:27;3.72;;;2.20;;
17662;SDS011;8950;56.892;15.090;2023-04-08T12:31:54;2.70;;;2.20;;
17662;SDS011;8950;56.892;15.090;2023-04-08T12:34:21;2.40;;;2.20;;
17662;SDS011;8950;56.892;15.090;2023-04-08T12:36:47;3.97;;;2.53;;
17662;SDS011;8950;56.892;15.090;2023-04-08T12:39:14;2.60;;;2.40;;
17662;SDS011;8950;56.892;15.090;2023-04-08T12:41:41;2.40;;;2.20;;
17662;SDS011;8950;56.892;15.090;2023-04-08T12:44:07;2.40;;;2.20;;
17662;SDS011;8950;56.892;15.090;2023-04-08T12:46:35;3.95;;;2.10;;
17662;SDS011;8950;56.892;15.090;2023-04-08T12:49:01;2.30;;;2.17;;
17662;SDS011;8950;56.892;15.090;2023-04-08T12:51:28;2.45;;;2.22;;
17662;SDS011;8950;56.892;15.090;2023-04-08T12:53:55;3.17;;;2.10;;
17662;SDS011;8950;56.892;15.090;2023-04-08T12:56:21;2.10;;;2.00;;
17662;SDS011;8950;56.892;15.090;2023-04-08T12:58:48;4.50;;;2.30;;
17662;SDS011;8950;56.892;15.090;2023-04-08T13:01:15;2.42;;;1.90;;
17662;SDS011;8950;56.892;15.090;2023-04-08T13:03:43;2.25;;;2.10;;
17662;SDS011;8950;56.892;15.090;2023-04-08T13:06:12;2.38;;;2.10;;
17662;SDS011;8950;56.892;15.090;2023-04-08T13:08:38;2.60;;;2.03;;
17662;SDS011;8950;56.892;15.090;2023-04-08T13:11:06;2.15;;;2.05;;
17662;SDS011;8950;56.892;15.090;2023-04-08T13:13:32;3.58;;;2.10;;
17662;SDS011;8950;56.892;15.090;2023-04-08T13:15:58;2.30;;;2.10;;
17662;SDS011;8950;56.892;15.090;2023-04-08T13:18:25;2.40;;;2.20;;
17662;SDS011;8950;56.892;15.090;2023-04-08T13:20:53;2.20;;;2.00;;
17662;SDS011;8950;56.892;15.090;2023-04-08T13:23:19;2.72;;;2.00;;
17662;SDS011;8950;56.892;15.090;2023-04-08T13:25:46;2.58;;;2.30;;
17662;SDS011;8950;56.892;15.090;2023-04-08T13:28:13;2.42;;;2.22;;
17662;SDS011;8950;56.892;15.090;2023-04-08T13:30:39;2.50;;;2.30;;
17662;SDS011;8950;56.892;15.090;2023-04-08T13:33:06;2.50;;;2.30;;
17662;SDS011;8950;56.892;15.090;2023-04-08T13:35:32;2.53;;;2.22;;
17662;SDS011;8950;56.892;15.090;2023-04-08T13:38:00;2.58;;;2.30;;
17662;SDS011;8950;56.892;15.090;2023-04-08T13:40:27;3.58;;;2.35;;
17662;SDS011;8950;56.892;15.090;2023-04-08T13:42:53;3.92;;;2.03;;
17662;SDS011;8950;56.892;15.090;2023-04-08T13:45:19;2.45;;;2.25;;
17662;SDS011;8950;56.892;15.090;2023-04-08T13:47:46;2.75;;;2.55;;
17662;SDS011;8950;56.892;15.090;2023-04-08T13:50:13;2.50;;;2.30;;
17662;SDS011;8950;56.892;15.090;2023-04-08T13:52:39;2.20;;;2.00;;
17662;SDS011;8950;56.892;15.090;2023-04-08T13:55:08;2.50;;;2.10;;
17662;SDS011;8950;56.892;15.090;2023-04-08T13:57:35;2.33;;;2.20;;
17662;SDS011;8950;56.892;15.090;2023-04-08T14:00:01;3.10;;;2.50;;
17662;SDS011;8950;56.892;15.090;2023-04-08T14:02:29;2.63;;;2.40;;
17662;SDS011;8950;56.892;15.090;2023-04-08T14:04:55;2.55;;;2.35;;
17662;SDS011;8950;56.892;15.090;2023-04-08T14:07:22;2.40;;;2.20;;
17662;SDS011;8950;56.892;15.090;2023-04-08T14:09:49;4.30;;;2.10;;
17662;SDS011;8950;56.892;15.090;2023-04-08T14:12:17;3.28;;;2.42;;
17662;SDS011;8950;56.892;15.090;2023-04-08T14:14:43;2.10;;;2.00;;
17662;SDS011;8950;56.892;15.090;2023-04-08T14:17:10;2.40;;;2.20;;
17662;SDS011;8950;56.892;15.090;2023-04-08T14:19:36;2.00;;;1.90;;
17662;SDS011;8950;56.892;15.090;2023-04-08T14:22:02;2.50;;;2.15;;
17662;SDS011;8950;56.892;15.090;2023-04-08T14:24:29;2.30;;;2.10;;
17662;SDS011;8950;56.892;15.090;2023-04-08T14:26:55;2.28;;;2.08;;
17662;SDS011;8950;56.892;15.090;2023-04-08T14:29:23;2.70;;;2.50;;
17662;SDS011;8950;56.892;15.090;2023-04-08T14:31:50;2.65;;;2.40;;
17662;SDS011;8950;56.892;15.090;2023-04-08T14:34:16;3.00;;;2.25;;
17662;SDS011;8950;56.892;15.090;2023-04-08T14:36:43;2.35;;;2.08;;
17662;SDS011;8950;56.892;15.090;2023-04-08T14:39:09;2.60;;;2.40;;
17662;SDS011;8950;56.892;15.090;2023-04-08T14:41:36;2.67;;;2.47;;
17662;SDS011;8950;56.892;15.090;2023-04-08T14:44:03;3.08;;;2.50;;
17662;SDS011;8950;56.892;15.090;2023-04-08T14:46:31;2.60;;;2.30;;
17662;SDS011;8950;56.892;15.090;2023-04-08T14:48:57;2.63;;;2.42;;
17662;SDS011;8950;56.892;15.090;2023-04-08T14:51:24;2.65;;;2.33;;
17662;SDS011;8950;56.892;15.090;2023-04-08T14:53:51;3.03;;;2.50;;
17662;SDS011;8950;56.892;15.090;2023-04-08T14:56:17;125.15;;;12.93;;